createdAt,value
2022-09-28T00:00:36.001Z,98857.00
2022-09-28T00:03:03.778Z,98862.00
2022-09-28T00:05:31.749Z,98849.00
2022-09-28T00:08:01.037Z,98843.00
2022-09-28T00:10:28.861Z,98849.00
2022-09-28T00:12:56.657Z,98847.00
2022-09-28T00:15:25.474Z,98852.00
2022-09-28T00:17:53.618Z,98843.00
2022-09-28T00:20:22.644Z,98847.00
2022-09-28T00:22:50.384Z,98848.00
2022-09-28T00:25:21.928Z,98844.00
2022-09-28T00:27:51.109Z,98840.00
2022-09-28T00:30:18.841Z,98822.00
2022-09-28T00:32:46.514Z,98826.00
2022-09-28T00:35:14.254Z,98827.00
2022-09-28T00:37:41.975Z,98833.00
2022-09-28T00:40:10.394Z,98831.00
2022-09-28T00:42:42.818Z,98818.00
2022-09-28T00:45:10.922Z,98812.00
2022-09-28T00:47:46.625Z,98818.00
2022-09-28T00:50:20.753Z,98811.00
2022-09-28T00:52:53.183Z,98799.00
2022-09-28T00:55:26.245Z,98805.00
2022-09-28T00:57:59.548Z,98798.00
2022-09-28T01:00:27.362Z,98799.00
2022-09-28T01:02:56.216Z,98804.00
2022-09-28T01:05:25.502Z,98791.00
2022-09-28T01:07:53.483Z,98770.00
2022-09-28T01:10:21.375Z,98779.00
2022-09-28T01:12:49.029Z,98777.00
2022-09-28T01:15:21.724Z,98778.00
2022-09-28T01:18:05.526Z,98774.00
2022-09-28T01:21:01.157Z,98786.00
2022-09-28T01:23:55.003Z,98773.00
2022-09-28T01:26:59.248Z,98777.00
2022-09-28T01:29:37.076Z,98770.00
2022-09-28T01:32:15.612Z,98758.00
2022-09-28T01:34:50.915Z,98753.00
2022-09-28T01:37:22.497Z,98759.00
2022-09-28T01:39:52.854Z,98760.00
2022-09-28T01:42:27.909Z,98752.00
2022-09-28T01:45:01.336Z,98755.00
2022-09-28T01:47:32.802Z,98759.00
2022-09-28T01:50:06.178Z,98750.00
2022-09-28T01:52:40.975Z,98749.00
2022-09-28T01:55:13.103Z,98750.00
2022-09-28T01:57:46.592Z,98742.00
2022-09-28T02:00:16.857Z,98746.00
2022-09-28T02:02:49.681Z,98727.00
2022-09-28T02:05:21.653Z,98743.00
2022-09-28T02:07:57.350Z,98728.00
2022-09-28T02:10:29.920Z,98732.00
2022-09-28T02:13:03.582Z,98725.00
2022-09-28T02:15:38.379Z,98733.00
2022-09-28T02:18:06.520Z,98717.00
2022-09-28T02:20:37.442Z,98721.00
2022-09-28T02:23:05.877Z,98725.00
2022-09-28T02:25:39.222Z,98729.00
2022-09-28T02:28:11.188Z,98721.00
2022-09-28T02:30:40.459Z,98721.00
2022-09-28T02:33:13.873Z,98722.00
2022-09-28T02:35:43.140Z,98723.00
2022-09-28T02:38:12.165Z,98717.00
2022-09-28T02:40:40.438Z,98710.00
2022-09-28T02:43:19.912Z,98720.00
2022-09-28T02:46:03.057Z,98705.00
2022-09-28T02:48:55.822Z,98710.00
2022-09-28T02:51:40.527Z,98709.00
2022-09-28T02:54:23.925Z,98702.00
2022-09-28T02:57:13.149Z,98703.00
2022-09-28T02:59:56.760Z,98703.00
2022-09-28T03:02:30.017Z,98704.00
2022-09-28T03:05:10.918Z,98699.00
2022-09-28T03:07:42.736Z,98690.00
2022-09-28T03:10:16.948Z,98696.00
2022-09-28T03:12:47.242Z,98692.00
2022-09-28T03:15:23.340Z,98691.00
2022-09-28T03:17:51.122Z,98689.00
2022-09-28T03:20:19.277Z,98686.00
2022-09-28T03:23:05.951Z,98701.00
2022-09-28T03:25:35.510Z,98689.00
2022-09-28T03:28:03.523Z,98689.00
2022-09-28T03:30:32.595Z,98679.00
2022-09-28T03:33:02.463Z,98681.00
2022-09-28T03:35:30.182Z,98687.00
2022-09-28T03:37:58.178Z,98686.00
2022-09-28T03:40:27.178Z,98685.00
2022-09-28T03:42:55.046Z,98676.00
2022-09-28T03:45:22.775Z,98680.00
2022-09-28T03:47:51.904Z,98680.00
2022-09-28T03:50:19.612Z,98681.00
2022-09-28T03:52:47.963Z,98678.00
2022-09-28T03:55:15.778Z,98680.00
2022-09-28T03:57:43.510Z,98675.00
2022-09-28T04:00:12.804Z,98679.00
2022-09-28T04:02:40.504Z,98672.00
2022-09-28T04:05:09.923Z,98671.00
2022-09-28T04:07:37.648Z,98663.00
2022-09-28T04:10:05.829Z,98658.00
2022-09-28T04:12:33.675Z,98666.00
2022-09-28T04:15:01.452Z,98654.00
2022-09-28T04:17:29.158Z,98654.00
2022-09-28T04:19:57.749Z,98661.00
2022-09-28T04:22:26.817Z,98661.00
2022-09-28T04:24:54.559Z,98652.00
2022-09-28T04:27:39.988Z,98649.00
2022-09-28T04:30:09.012Z,98656.00
2022-09-28T04:32:36.734Z,98652.00
2022-09-28T04:35:04.685Z,98655.00
2022-09-28T04:37:33.800Z,98650.00
2022-09-28T04:40:01.812Z,98652.00
2022-09-28T04:42:29.547Z,98653.00
2022-09-28T04:44:58.768Z,98652.00
2022-09-28T04:47:26.496Z,98656.00
2022-09-28T04:49:54.352Z,98647.00
2022-09-28T04:52:22.083Z,98646.00
2022-09-28T04:54:51.226Z,98645.00
2022-09-28T04:57:18.926Z,98646.00
2022-09-28T04:59:46.731Z,98642.00
2022-09-28T05:02:15.096Z,98656.00
2022-09-28T05:04:43.073Z,98643.00
2022-09-28T05:07:10.783Z,98651.00
2022-09-28T05:09:38.765Z,98645.00
2022-09-28T05:12:09.503Z,98640.00
2022-09-28T05:14:37.189Z,98647.00
2022-09-28T05:17:05.186Z,98648.00
2022-09-28T05:19:34.802Z,98639.00
2022-09-28T05:22:04.409Z,98640.00
2022-09-28T05:24:32.312Z,98641.00
2022-09-28T05:27:00.100Z,98644.00
2022-09-28T05:29:32.167Z,98631.00
2022-09-28T05:32:01.506Z,98636.00
2022-09-28T05:34:29.693Z,98643.00
2022-09-28T05:36:57.511Z,98644.00
2022-09-28T05:39:25.208Z,98638.00
2022-09-28T05:41:52.964Z,98638.00
2022-09-28T05:44:20.683Z,98638.00
2022-09-28T05:46:49.864Z,98628.00
2022-09-28T05:49:17.842Z,98629.00
2022-09-28T05:51:45.611Z,98629.00
2022-09-28T05:54:13.575Z,98632.00
2022-09-28T05:56:41.398Z,98637.00
2022-09-28T05:59:09.306Z,98629.00
2022-09-28T06:01:37.135Z,98633.00
2022-09-28T06:04:06.259Z,98628.00
2022-09-28T06:06:36.032Z,98633.00
2022-09-28T06:09:04.150Z,98637.00
2022-09-28T06:11:32.872Z,98637.00
2022-09-28T06:14:00.590Z,98634.00
2022-09-28T06:16:28.381Z,98639.00
2022-09-28T06:18:56.227Z,98638.00
2022-09-28T06:21:25.334Z,98637.00
2022-09-28T06:23:53.134Z,98640.00
2022-09-28T06:26:23.526Z,98638.00
2022-09-28T06:28:51.350Z,98640.00
2022-09-28T06:31:23.698Z,98648.00
2022-09-28T06:33:52.020Z,98648.00
2022-09-28T06:36:20.815Z,98644.00
2022-09-28T06:38:49.909Z,98647.00
2022-09-28T06:41:18.164Z,98638.00
2022-09-28T06:43:46.432Z,98644.00
2022-09-28T06:46:15.207Z,98646.00
2022-09-28T06:48:44.370Z,98649.00
2022-09-28T06:51:12.110Z,98651.00
2022-09-28T06:53:39.826Z,98651.00
2022-09-28T06:56:11.786Z,98659.00
2022-09-28T06:58:39.539Z,98654.00
2022-09-28T07:01:07.515Z,98654.00
2022-09-28T07:03:35.347Z,98662.00
2022-09-28T07:06:03.564Z,98657.00
2022-09-28T07:08:31.256Z,98654.00
2022-09-28T07:10:58.951Z,98654.00
2022-09-28T07:13:48.612Z,98652.00
2022-09-28T07:16:17.105Z,98657.00
2022-09-28T07:18:44.855Z,98670.00
2022-09-28T07:21:24.029Z,98668.00
2022-09-28T07:23:54.344Z,98676.00
2022-09-28T07:26:24.315Z,98687.00
2022-09-28T07:28:55.704Z,98683.00
2022-09-28T07:31:25.247Z,98676.00
2022-09-28T07:33:54.010Z,98684.00
2022-09-28T07:36:23.187Z,98680.00
2022-09-28T07:38:51.100Z,98685.00
2022-09-28T07:41:22.415Z,98670.00
2022-09-28T07:43:50.831Z,98685.00
2022-09-28T07:46:20.764Z,98689.00
2022-09-28T07:48:49.511Z,98692.00
2022-09-28T07:51:19.698Z,98689.00
2022-09-28T07:53:48.005Z,98691.00
2022-09-28T07:56:17.359Z,98699.00
2022-09-28T07:58:45.099Z,98699.00
2022-09-28T08:01:14.901Z,98701.00
2022-09-28T08:03:45.352Z,98700.00
2022-09-28T08:06:14.479Z,98705.00
2022-09-28T08:08:44.582Z,98706.00
2022-09-28T08:11:13.599Z,98703.00
2022-09-28T08:13:41.390Z,98712.00
2022-09-28T08:16:09.165Z,98702.00
2022-09-28T08:18:37.417Z,98711.00
2022-09-28T08:21:24.984Z,98719.00
2022-09-28T08:23:52.872Z,98715.00
2022-09-28T08:26:20.580Z,98725.00
2022-09-28T08:28:49.187Z,98724.00
2022-09-28T08:31:17.018Z,98728.00
2022-09-28T08:33:44.780Z,98726.00
2022-09-28T08:36:14.168Z,98727.00
2022-09-28T08:38:41.824Z,98728.00
2022-09-28T08:41:20.606Z,98733.00
2022-09-28T08:44:01.778Z,98736.00
2022-09-28T08:46:34.360Z,98736.00
2022-09-28T08:49:30.542Z,98748.00
2022-09-28T08:52:01.741Z,98747.00
2022-09-28T08:54:39.666Z,98750.00
2022-09-28T08:57:12.777Z,98745.00
2022-09-28T08:59:50.201Z,98735.00
2022-09-28T09:02:22.906Z,98759.00
2022-09-28T09:04:51.964Z,98757.00
2022-09-28T09:07:34.394Z,98757.00
2022-09-28T09:10:12.249Z,98755.00
2022-09-28T09:12:47.543Z,98767.00
2022-09-28T09:15:25.978Z,98771.00
2022-09-28T09:20:59.182Z,98767.00
2022-09-28T09:23:37.501Z,98775.00
2022-09-28T09:26:15.311Z,98776.00
2022-09-28T09:29:12.208Z,98769.00
2022-09-28T09:32:03.007Z,98784.00
2022-09-28T09:34:44.393Z,98794.00
2022-09-28T09:37:26.443Z,98792.00
2022-09-28T09:40:11.845Z,98794.00
2022-09-28T09:42:52.210Z,98794.00
2022-09-28T09:45:36.849Z,98794.00
2022-09-28T09:48:08.490Z,98806.00
2022-09-28T09:50:41.651Z,98812.00
2022-09-28T09:53:20.893Z,98812.00
2022-09-28T09:55:57.161Z,98800.00
2022-09-28T09:58:30.268Z,98807.00
2022-09-28T10:01:03.237Z,98815.00
2022-09-28T10:03:34.065Z,98813.00
2022-09-28T10:06:07.195Z,98819.00
2022-09-28T10:08:39.946Z,98826.00
2022-09-28T10:11:15.135Z,98823.00
2022-09-28T10:13:42.842Z,98820.00
2022-09-28T10:16:10.607Z,98823.00
2022-09-28T10:18:39.189Z,98812.00
2022-09-28T10:21:07.181Z,98823.00
2022-09-28T10:23:37.928Z,98825.00
2022-09-28T10:26:14.477Z,98833.00
2022-09-28T10:28:46.466Z,98826.00
2022-09-28T10:31:40.307Z,98832.00
2022-09-28T10:34:09.764Z,98828.00
2022-09-28T10:36:47.997Z,98833.00
2022-09-28T10:39:37.651Z,98844.00
2022-09-28T10:42:10.185Z,98838.00
2022-09-28T10:44:51.809Z,98847.00
2022-09-28T10:47:21.986Z,98838.00
2022-09-28T10:49:51.676Z,98844.00
2022-09-28T10:52:38.512Z,98852.00
2022-09-28T10:55:29.369Z,98853.00
2022-09-28T10:57:59.392Z,98849.00
2022-09-28T11:00:36.228Z,98851.00
2022-09-28T11:03:04.609Z,98846.00
2022-09-28T11:05:32.648Z,98849.00
2022-09-28T11:08:03.877Z,98840.00
2022-09-28T11:10:33.698Z,98859.00
2022-09-28T11:13:02.894Z,98860.00
2022-09-28T11:15:33.145Z,98866.00
2022-09-28T11:18:21.143Z,98859.00
2022-09-28T11:20:50.188Z,98871.00
2022-09-28T11:23:21.416Z,98873.00
2022-09-28T11:26:06.213Z,98877.00
2022-09-28T11:28:37.367Z,98863.00
2022-09-28T11:31:07.847Z,98865.00
2022-09-28T11:33:37.671Z,98865.00
2022-09-28T11:36:19.708Z,98869.00
2022-09-28T11:38:58.167Z,98869.00
2022-09-28T11:41:39.092Z,98873.00
2022-09-28T11:44:28.269Z,98867.00
2022-09-28T11:47:13.062Z,98864.00
2022-09-28T11:49:45.093Z,98876.00
2022-09-28T11:52:19.403Z,98878.00
2022-09-28T11:54:51.914Z,98881.00
2022-09-28T11:57:23.893Z,98876.00
2022-09-28T11:59:59.175Z,98877.00
2022-09-28T12:02:31.950Z,98881.00
2022-09-28T12:05:15.913Z,98885.00
2022-09-28T12:07:51.508Z,98883.00
2022-09-28T12:10:22.929Z,98883.00
2022-09-28T12:12:57.276Z,98879.00
2022-09-28T12:15:38.208Z,98884.00
2022-09-28T12:18:22.027Z,98887.00
2022-09-28T12:20:54.264Z,98888.00
2022-09-28T12:23:30.768Z,98890.00
2022-09-28T12:26:01.657Z,98886.00
2022-09-28T12:28:37.039Z,98892.00
2022-09-28T12:31:14.105Z,98892.00
2022-09-28T12:33:46.586Z,98898.00
2022-09-28T12:36:29.218Z,98888.00
2022-09-28T12:39:40.875Z,98885.00
2022-09-28T12:42:29.105Z,98888.00
2022-09-28T12:45:12.300Z,98890.00
2022-09-28T12:47:57.673Z,98893.00
2022-09-28T12:50:38.774Z,98896.00
2022-09-28T12:53:24.224Z,98895.00
2022-09-28T12:55:57.818Z,98895.00
2022-09-28T12:58:40.025Z,98904.00
2022-09-28T13:01:20.095Z,98908.00
2022-09-28T13:04:27.413Z,98902.00
2022-09-28T13:07:04.162Z,98901.00
2022-09-28T13:09:45.129Z,98897.00
2022-09-28T13:12:24.370Z,98900.00
2022-09-28T13:17:30.372Z,98903.00
2022-09-28T13:20:00.360Z,98905.00
2022-09-28T13:22:44.130Z,98905.00
2022-09-28T13:25:16.575Z,98903.00
2022-09-28T13:27:51.598Z,98905.00
2022-09-28T13:30:19.817Z,98904.00
2022-09-28T13:32:49.850Z,98905.00
2022-09-28T13:35:20.104Z,98922.00
2022-09-28T13:38:12.290Z,98905.00
2022-09-28T13:41:14.906Z,98909.00
2022-09-28T13:43:59.185Z,98912.00
2022-09-28T13:46:34.272Z,98913.00
2022-09-28T13:49:11.163Z,98904.00
2022-09-28T13:51:55.310Z,98916.00
2022-09-28T13:54:39.476Z,98917.00
2022-09-28T13:57:19.642Z,98923.00
2022-09-28T13:59:59.173Z,98925.00
2022-09-28T14:02:35.756Z,98928.00
2022-09-28T14:05:06.099Z,98940.00
2022-09-28T14:07:59.721Z,98933.00
2022-09-28T14:10:51.627Z,98937.00
2022-09-28T14:14:02.510Z,98939.00
2022-09-28T14:16:34.624Z,98942.00
2022-09-28T14:19:08.134Z,98936.00
2022-09-28T14:21:58.025Z,98937.00
2022-09-28T14:24:35.477Z,98934.00
2022-09-28T14:27:28.853Z,98942.00
2022-09-28T14:30:16.989Z,98939.00
2022-09-28T14:32:53.639Z,98948.00
2022-09-28T14:35:29.783Z,98949.00
2022-09-28T14:38:18.353Z,98948.00
2022-09-28T14:41:10.796Z,98955.00
2022-09-28T14:44:00.628Z,98952.00
2022-09-28T14:46:46.407Z,98958.00
2022-09-28T14:49:50.160Z,98944.00
2022-09-28T14:52:39.907Z,98954.00
2022-09-28T14:55:16.282Z,98950.00
2022-09-28T14:57:44.039Z,98955.00
2022-09-28T15:00:21.968Z,98959.00
2022-09-28T15:02:52.652Z,98960.00
2022-09-28T15:05:26.204Z,98963.00
2022-09-28T15:07:56.056Z,98951.00
2022-09-28T15:10:31.211Z,98963.00
2022-09-28T15:13:01.369Z,98958.00
2022-09-28T15:15:34.538Z,98959.00
2022-09-28T15:18:28.772Z,98957.00
2022-09-28T15:20:57.126Z,98952.00
2022-09-28T15:23:27.686Z,98954.00
2022-09-28T15:25:56.365Z,98954.00
2022-09-28T15:28:25.448Z,98961.00
2022-09-28T15:31:00.485Z,98962.00
2022-09-28T15:33:47.907Z,98958.00
2022-09-28T15:36:20.368Z,98963.00
2022-09-28T15:38:55.442Z,98976.00
2022-09-28T15:41:24.974Z,98969.00
2022-09-28T15:44:09.406Z,98980.00
2022-09-28T15:46:41.178Z,98977.00
2022-09-28T15:49:24.569Z,98981.00
2022-09-28T15:51:54.695Z,98980.00
2022-09-28T15:54:26.283Z,98994.00
2022-09-28T15:56:57.764Z,98992.00
2022-09-28T15:59:31.723Z,98998.00
2022-09-28T16:02:12.550Z,98993.00
2022-09-28T16:04:47.962Z,98996.00
2022-09-28T16:07:27.748Z,98999.00
2022-09-28T16:10:02.216Z,99003.00
2022-09-28T16:12:43.354Z,98998.00
2022-09-28T16:15:20.580Z,98987.00
2022-09-28T16:17:55.825Z,98998.00
2022-09-28T16:20:29.424Z,99005.00
2022-09-28T16:23:03.437Z,99004.00
2022-09-28T16:25:31.319Z,99000.00
2022-09-28T16:27:59.088Z,98997.00
2022-09-28T16:30:30.263Z,98993.00
2022-09-28T16:33:02.256Z,98995.00
2022-09-28T16:35:32.648Z,99003.00
2022-09-28T16:38:10.218Z,99010.00
2022-09-28T16:40:41.902Z,99006.00
2022-09-28T16:43:18.215Z,99004.00
2022-09-28T16:45:46.011Z,99009.00
2022-09-28T16:48:23.767Z,99014.00
2022-09-28T16:50:51.828Z,99008.00
2022-09-28T16:53:37.144Z,99009.00
2022-09-28T16:56:06.424Z,99013.00
2022-09-28T16:58:34.251Z,99017.00
2022-09-28T17:01:02.177Z,99015.00
2022-09-28T17:03:31.507Z,99021.00
2022-09-28T17:05:59.372Z,99021.00
2022-09-28T17:08:27.415Z,99028.00
2022-09-28T17:13:45.927Z,99031.00
2022-09-28T17:16:15.567Z,99034.00
2022-09-28T17:18:46.900Z,99030.00
2022-09-28T17:21:16.740Z,99029.00
2022-09-28T17:23:44.876Z,99034.00
2022-09-28T17:26:18.790Z,99041.00
2022-09-28T17:28:46.592Z,99055.00
2022-09-28T17:31:16.535Z,99051.00
2022-09-28T17:33:46.151Z,99043.00
2022-09-28T17:36:16.176Z,99049.00
2022-09-28T17:38:44.696Z,99054.00
2022-09-28T17:41:16.803Z,99054.00
2022-09-28T17:43:47.593Z,99060.00
2022-09-28T17:46:26.777Z,99062.00
2022-09-28T17:48:57.605Z,99062.00
2022-09-28T17:51:25.462Z,99062.00
2022-09-28T17:53:54.672Z,99067.00
2022-09-28T17:56:22.420Z,99073.00
2022-09-28T17:58:50.212Z,99067.00
2022-09-28T18:01:17.978Z,99072.00
2022-09-28T18:03:45.905Z,99078.00
2022-09-28T18:06:19.686Z,99079.00
2022-09-28T18:08:47.519Z,99085.00
2022-09-28T18:11:15.796Z,99080.00
2022-09-28T18:13:43.540Z,99084.00
2022-09-28T18:16:11.326Z,99088.00
2022-09-28T18:18:39.856Z,99084.00
2022-09-28T18:21:08.205Z,99081.00
2022-09-28T18:23:37.852Z,99093.00
2022-09-28T18:26:06.259Z,99094.00
2022-09-28T18:28:34.018Z,99092.00
2022-09-28T18:31:08.257Z,99097.00
2022-09-28T18:33:52.099Z,99094.00
2022-09-28T18:36:20.151Z,99100.00
2022-09-28T18:38:50.166Z,99097.00
2022-09-28T18:41:17.907Z,99102.00
2022-09-28T18:43:49.582Z,99103.00
2022-09-28T18:46:18.717Z,99113.00
2022-09-28T18:48:47.667Z,99108.00
2022-09-28T18:51:15.534Z,99118.00
2022-09-28T18:53:43.406Z,99109.00
2022-09-28T18:56:14.500Z,99115.00
2022-09-28T18:58:43.703Z,99118.00
2022-09-28T19:01:29.581Z,99118.00
2022-09-28T19:04:00.132Z,99111.00
2022-09-28T19:06:28.403Z,99111.00
2022-09-28T19:08:56.618Z,99117.00
2022-09-28T19:11:26.487Z,99112.00
2022-09-28T19:13:54.980Z,99117.00
2022-09-28T19:16:25.007Z,99122.00
2022-09-28T19:18:53.709Z,99128.00
2022-09-28T19:21:22.092Z,99118.00
2022-09-28T19:23:50.197Z,99129.00
2022-09-28T19:26:21.358Z,99126.00
2022-09-28T19:28:51.178Z,99129.00
2022-09-28T19:31:19.323Z,99145.00
2022-09-28T19:33:47.160Z,99134.00
2022-09-28T19:36:17.721Z,99119.00
2022-09-28T19:38:46.225Z,99134.00
2022-09-28T19:41:39.416Z,99134.00
2022-09-28T19:44:15.641Z,99138.00
2022-09-28T19:46:44.483Z,99147.00
2022-09-28T19:49:14.251Z,99129.00
2022-09-28T19:52:01.642Z,99133.00
2022-09-28T19:54:36.301Z,99138.00
2022-09-28T19:57:08.582Z,99145.00
2022-09-28T19:59:38.713Z,99142.00
2022-09-28T20:02:07.748Z,99137.00
2022-09-28T20:04:35.696Z,99141.00
2022-09-28T20:07:03.769Z,99136.00
2022-09-28T20:09:32.206Z,99138.00
2022-09-28T20:11:59.960Z,99133.00
2022-09-28T20:14:32.863Z,99141.00
2022-09-28T20:17:05.524Z,99140.00
2022-09-28T20:19:33.517Z,99158.00
2022-09-28T20:22:02.613Z,99158.00
2022-09-28T20:24:31.025Z,99150.00
2022-09-28T20:26:58.792Z,99158.00
2022-09-28T20:29:26.682Z,99160.00
2022-09-28T20:31:54.426Z,99150.00
2022-09-28T20:34:23.602Z,99162.00
2022-09-28T20:36:51.336Z,99131.00
2022-09-28T20:39:19.129Z,99156.00
2022-09-28T20:41:48.988Z,99154.00
2022-09-28T20:44:16.958Z,99159.00
2022-09-28T20:46:45.278Z,99158.00
2022-09-28T20:49:13.048Z,99153.00
2022-09-28T20:51:42.178Z,99158.00
2022-09-28T20:54:10.019Z,99160.00
2022-09-28T20:56:38.861Z,99159.00
2022-09-28T20:59:09.214Z,99158.00
2022-09-28T21:01:37.418Z,99169.00
2022-09-28T21:04:07.404Z,99160.00
2022-09-28T21:06:37.007Z,99174.00
2022-09-28T21:09:07.616Z,99164.00
2022-09-28T21:11:36.401Z,99174.00
2022-09-28T21:14:06.219Z,99177.00
2022-09-28T21:16:35.601Z,99171.00
2022-09-28T21:19:03.667Z,99186.00
2022-09-28T21:21:31.631Z,99178.00
2022-09-28T21:23:59.545Z,99179.00
2022-09-28T21:26:31.105Z,99179.00
2022-09-28T21:29:00.465Z,99189.00
2022-09-28T21:31:31.315Z,99182.00
2022-09-28T21:33:59.629Z,99188.00
2022-09-28T21:36:27.421Z,99188.00
2022-09-28T21:38:56.015Z,99192.00
2022-09-28T21:41:23.909Z,99191.00
2022-09-28T21:43:53.235Z,99207.00
2022-09-28T21:46:21.018Z,99200.00
2022-09-28T21:48:52.794Z,99191.00
2022-09-28T21:51:21.027Z,99199.00
2022-09-28T21:53:49.554Z,99192.00
2022-09-28T21:56:17.521Z,99186.00
2022-09-28T21:58:45.231Z,99192.00
2022-09-28T22:01:16.481Z,99189.00
2022-09-28T22:03:46.626Z,99186.00
2022-09-28T22:06:15.941Z,99199.00
2022-09-28T22:08:43.685Z,99193.00
2022-09-28T22:11:13.508Z,99190.00
2022-09-28T22:13:42.625Z,99188.00
2022-09-28T22:16:11.241Z,99200.00
2022-09-28T22:18:41.113Z,99198.00
2022-09-28T22:21:11.218Z,99189.00
2022-09-28T22:23:41.398Z,99195.00
2022-09-28T22:26:11.401Z,99204.00
2022-09-28T22:28:40.679Z,99203.00
2022-09-28T22:31:08.468Z,99181.00
2022-09-28T22:33:36.267Z,99190.00
2022-09-28T22:36:05.491Z,99189.00
2022-09-28T22:38:33.550Z,99197.00
2022-09-28T22:41:03.748Z,99195.00
2022-09-28T22:43:31.891Z,99204.00
2022-09-28T22:46:04.641Z,99202.00
2022-09-28T22:48:33.157Z,99211.00
2022-09-28T22:51:00.918Z,99202.00
2022-09-28T22:53:30.400Z,99204.00
2022-09-28T22:55:59.902Z,99216.00
2022-09-28T22:58:27.900Z,99202.00
2022-09-28T23:00:57.285Z,99209.00
2022-09-28T23:03:25.103Z,99212.00
2022-09-28T23:05:53.992Z,99212.00
2022-09-28T23:08:22.337Z,99210.00
2022-09-28T23:10:52.065Z,99208.00
2022-09-28T23:13:19.998Z,99208.00
2022-09-28T23:15:56.419Z,99205.00
2022-09-28T23:18:24.659Z,99204.00
2022-09-28T23:20:56.415Z,99201.00
2022-09-28T23:23:24.512Z,99209.00
2022-09-28T23:25:54.487Z,99199.00
2022-09-28T23:28:23.859Z,99206.00
2022-09-28T23:30:51.771Z,99192.00
2022-09-28T23:33:21.532Z,99200.00
2022-09-28T23:35:49.438Z,99197.00
2022-09-28T23:38:18.848Z,99198.00
2022-09-28T23:40:47.296Z,99200.00
2022-09-28T23:43:16.474Z,99208.00
2022-09-28T23:45:44.322Z,99208.00
2022-09-28T23:48:14.959Z,99206.00
2022-09-28T23:50:43.151Z,99202.00
2022-09-28T23:53:11.022Z,99212.00
2022-09-28T23:55:38.843Z,99205.00
2022-09-28T23:58:06.544Z,99210.00
